TimeCST,TemperatureF,Dew PointF,Humidity,Sea Level PressureIn,VisibilityMPH,Wind Direction,Wind SpeedMPH,Gust SpeedMPH,PrecipitationIn,Events,Conditions,WindDirDegrees,DateUTC
12:53 AM,21.0,14.0,74,30.31,10.0,WSW,5.8,-,N/A,,Clear,240,2013-12-26 06:53:00
1:53 AM,18.0,12.0,78,30.29,10.0,SSW,9.2,-,N/A,,Clear,210,2013-12-26 07:53:00
2:53 AM,18.0,14.0,84,30.27,10.0,South,9.2,-,N/A,,Clear,190,2013-12-26 08:53:00
3:53 AM,19.9,16.0,85,30.26,10.0,SW,12.7,-,N/A,,Clear,220,2013-12-26 09:53:00
4:53 AM,21.0,17.1,85,30.25,10.0,SW,12.7,-,N/A,,Clear,220,2013-12-26 10:53:00
5:53 AM,19.9,16.0,85,30.23,10.0,SW,13.8,-,N/A,,Clear,220,2013-12-26 11:53:00
6:53 AM,21.9,17.1,82,30.23,10.0,SW,12.7,-,N/A,,Clear,220,2013-12-26 12:53:00
7:53 AM,19.9,16.0,85,30.23,10.0,SSW,15.0,-,N/A,,Clear,210,2013-12-26 13:53:00
8:53 AM,23.0,18.0,81,30.23,10.0,SSW,15.0,-,N/A,,Clear,200,2013-12-26 14:53:00
9:53 AM,28.0,21.0,75,30.22,10.0,SSW,16.1,-,N/A,,Partly Cloudy,200,2013-12-26 15:53:00
10:53 AM,32.0,23.0,69,30.21,10.0,SSW,15.0,-,N/A,,Clear,210,2013-12-26 16:53:00
11:53 AM,37.0,26.1,65,30.17,10.0,SSW,17.3,-,N/A,,Mostly Cloudy,210,2013-12-26 17:53:00
12:53 PM,37.9,24.1,57,30.15,10.0,SW,19.6,28.8,N/A,,Mostly Cloudy,230,2013-12-26 18:53:00
1:53 PM,39.0,24.1,55,30.16,10.0,WSW,12.7,23.0,N/A,,Clear,250,2013-12-26 19:53:00
2:53 PM,39.0,25.0,57,30.16,10.0,WSW,13.8,-,N/A,,Clear,250,2013-12-26 20:53:00
3:53 PM,37.9,24.1,57,30.18,10.0,WSW,12.7,-,N/A,,Clear,250,2013-12-26 21:53:00
4:53 PM,36.0,25.0,64,30.20,10.0,West,9.2,-,N/A,,Clear,260,2013-12-26 22:53:00
5:53 PM,32.0,24.1,73,30.22,10.0,WSW,6.9,-,N/A,,Clear,250,2013-12-26 23:53:00
6:53 PM,32.0,23.0,69,30.24,10.0,West,6.9,-,N/A,,Clear,260,2013-12-27 00:53:00
7:53 PM,30.9,23.0,72,30.24,10.0,WSW,5.8,-,N/A,,Clear,240,2013-12-27 01:53:00
8:53 PM,30.0,21.9,72,30.25,10.0,WSW,6.9,-,N/A,,Clear,240,2013-12-27 02:53:00
9:53 PM,28.9,21.9,75,30.26,10.0,SW,6.9,-,N/A,,Clear,220,2013-12-27 03:53:00
10:53 PM,28.9,21.9,75,30.26,10.0,WSW,6.9,-,N/A,,Clear,250,2013-12-27 04:53:00
11:53 PM,27.0,21.0,78,30.27,10.0,West,9.2,-,N/A,,Clear,270,2013-12-27 05:53:00